Time;durP1;ratioP1;P1;durP2;ratioP2;P2;SDS_P1;SDS_P2;PMS_P1;PMS_P2;Temp;Humidity;BMP_temperature;BMP_pressure;BME280_temperature;BME280_humidity;BME280_pressure;Samples;Min_cycle;Max_cycle;Signal;HPM_P1;HPM_P2
2022/04/17 00:01:19;;;;;;;4.80;2.17;;;;;;;5.65;59.18;100740.55;1791658;79;22642;-53
2022/04/17 00:03:45;;;;;;;5.10;2.02;;;;;;;5.61;59.36;100745.54;1746395;80;21045;-52
2022/04/17 00:06:13;;;;;;;4.22;1.80;;;;;;;5.59;59.48;100751.31;1752205;80;21164;-52
2022/04/17 00:08:41;;;;;;;5.17;1.90;;;;;;;5.57;59.65;100753.17;1748156;80;21042;-52
2022/04/17 00:11:08;;;;;;;4.35;2.12;;;;;;;5.63;59.58;100751.55;1753444;80;21004;-53
2022/04/17 00:13:36;;;;;;;5.10;2.05;;;;;;;5.65;59.63;100755.35;1700154;81;20983;-52
2022/04/17 00:16:03;;;;;;;4.62;1.70;;;;;;;5.64;59.66;100745.86;1753414;80;21049;-52
2022/04/17 00:18:30;;;;;;;5.17;2.17;;;;;;;5.64;59.71;100752.38;1713542;83;22189;-53
2022/04/17 00:20:58;;;;;;;5.17;2.05;;;;;;;5.62;59.73;100751.16;1714047;82;21046;-52
2022/04/17 00:23:25;;;;;;;5.35;2.27;;;;;;;5.62;59.91;100745.10;1715700;83;21044;-52
2022/04/17 00:25:53;;;;;;;4.40;1.85;;;;;;;5.59;59.94;100746.09;1718590;82;21114;-52
2022/04/17 00:28:20;;;;;;;4.70;2.08;;;;;;;5.59;59.98;100753.45;1719186;82;22266;-52
2022/04/17 00:30:46;;;;;;;3.55;1.67;;;;;;;5.62;60.21;100753.77;1721508;82;21997;-52
2022/04/17 00:33:13;;;;;;;4.45;1.80;;;;;;;5.62;60.07;100752.46;1703747;82;21067;-52
2022/04/17 00:35:41;;;;;;;6.05;2.12;;;;;;;5.60;60.22;100750.41;1716035;81;21638;-52
2022/04/17 00:38:07;;;;;;;5.65;2.15;;;;;;;5.59;60.25;100752.63;1707108;83;21528;-52
2022/04/17 00:40:34;;;;;;;4.92;1.92;;;;;;;5.57;60.30;100750.56;1701632;83;21032;-52
2022/04/17 00:43:01;;;;;;;6.70;2.08;;;;;;;5.53;60.36;100743.80;1708850;84;21522;-53
2022/04/17 00:45:28;;;;;;;4.62;2.02;;;;;;;5.48;60.66;100747.98;1705017;82;21480;-52
2022/04/17 00:47:54;;;;;;;4.62;2.12;;;;;;;5.47;60.72;100752.81;1698750;83;21032;-53
2022/04/17 00:50:22;;;;;;;4.53;2.05;;;;;;;5.50;60.78;100747.91;1691634;83;21102;-53
2022/04/17 00:52:48;;;;;;;4.87;1.77;;;;;;;5.49;61.03;100740.98;1686856;83;21098;-52
2022/04/17 00:55:15;;;;;;;5.10;2.50;;;;;;;5.48;61.20;100736.23;1682859;82;21440;-52
2022/04/17 00:57:43;;;;;;;5.30;2.40;;;;;;;5.48;61.30;100741.89;1707000;84;21056;-53
2022/04/17 01:00:12;;;;;;;6.05;2.20;;;;;;;5.46;61.43;100746.36;1668984;84;21122;-53
2022/04/17 01:02:39;;;;;;;5.12;1.92;;;;;;;5.41;61.68;100742.68;1730845;82;21057;-52
2022/04/17 01:05:08;;;;;;;6.47;2.58;;;;;;;5.39;61.79;100741.45;1733327;82;21108;-53
2022/04/17 01:07:37;;;;;;;5.05;2.20;;;;;;;5.46;61.65;100746.36;1734777;80;21097;-52
2022/04/17 01:10:07;;;;;;;6.28;2.70;;;;;;;5.48;61.66;100747.98;1739092;81;21042;-52
2022/04/17 01:12:37;;;;;;;6.33;2.30;;;;;;;5.49;61.62;100743.13;1747677;81;21040;-52
2022/04/17 01:15:05;;;;;;;6.58;3.55;;;;;;;5.49;61.67;100748.81;1747907;82;21590;-52
2022/04/17 01:17:33;;;;;;;6.28;3.08;;;;;;;5.44;61.94;100740.39;1743081;81;21430;-52
2022/04/17 01:20:01;;;;;;;7.70;2.72;;;;;;;5.42;61.98;100739.63;1708302;83;21077;-52
2022/04/17 01:22:28;;;;;;;8.48;3.25;;;;;;;5.39;62.10;100738.84;1680744;84;21118;-52
2022/04/17 01:27:41;;;;;;;6.03;2.92;;;;;;;5.38;62.30;100743.70;1746021;81;21368;-53
2022/04/17 01:30:10;;;;;;;5.83;2.55;;;;;;;5.38;62.45;100738.95;1747382;82;21042;-52
2022/04/17 01:32:36;;;;;;;6.92;3.02;;;;;;;5.37;62.57;100738.56;1743352;81;21125;-53
2022/04/17 01:35:04;;;;;;;5.67;2.40;;;;;;;5.35;62.55;100733.89;1745003;81;21033;-53
2022/04/17 01:37:30;;;;;;;5.53;2.83;;;;;;;5.36;62.46;100741.64;1742033;81;21042;-53
2022/04/17 01:39:57;;;;;;;5.03;2.60;;;;;;;5.40;62.34;100732.72;1745653;81;21727;-52
2022/04/17 01:42:24;;;;;;;7.90;2.30;;;;;;;5.46;62.31;100733.31;1745503;81;21057;-53
2022/04/17 01:44:51;;;;;;;5.60;2.65;;;;;;;5.47;62.19;100735.84;1742485;81;21669;-53
2022/04/17 01:47:18;;;;;;;6.20;2.70;;;;;;;5.47;62.29;100728.48;1745113;81;21666;-52
2022/04/17 01:49:44;;;;;;;5.15;2.90;;;;;;;5.49;62.20;100730.07;1742144;82;21607;-53
2022/04/17 01:52:11;;;;;;;6.47;2.77;;;;;;;5.50;62.12;100730.94;1740834;81;21023;-53
2022/04/17 01:54:38;;;;;;;6.70;2.85;;;;;;;5.52;62.10;100731.22;1747197;82;21077;-53
2022/04/17 01:57:05;;;;;;;5.35;2.70;;;;;;;5.53;62.08;100730.75;1737371;81;21158;-53
2022/04/17 01:59:31;;;;;;;5.83;2.60;;;;;;;5.52;62.07;100731.69;1744369;81;21346;-53
2022/04/17 02:02:00;;;;;;;5.55;2.40;;;;;;;5.50;62.08;100730.94;1738641;80;21137;-53
2022/04/17 02:04:28;;;;;;;5.37;2.50;;;;;;;5.56;62.11;100726.23;1697559;84;21015;-53
2022/04/17 02:06:54;;;;;;;8.68;2.58;;;;;;;5.62;62.09;100722.91;1695982;82;21082;-53
2022/04/17 02:09:22;;;;;;;5.80;2.50;;;;;;;5.66;62.02;100722.64;1733147;82;21146;-53
2022/04/17 02:11:48;;;;;;;5.42;2.70;;;;;;;5.67;61.96;100720.89;1739714;82;21022;-53
2022/04/17 02:14:15;;;;;;;5.95;2.85;;;;;;;5.69;61.98;100724.25;1740726;81;21082;-54
2022/04/17 02:16:43;;;;;;;5.50;2.60;;;;;;;5.69;61.98;100720.34;1737691;81;21017;-53
2022/04/17 02:19:10;;;;;;;5.95;2.60;;;;;;;5.70;61.92;100722.88;1740145;80;20966;-54
2022/04/17 02:21:37;;;;;;;6.25;3.05;;;;;;;5.69;61.93;100715.95;1737628;81;21112;-53
2022/04/17 02:24:05;;;;;;;5.83;2.67;;;;;;;5.65;61.97;100718.36;1702430;83;21595;-53
2022/04/17 02:26:33;;;;;;;7.10;2.55;;;;;;;5.66;62.02;100720.03;1703379;82;21120;-53
2022/04/17 02:28:59;;;;;;;5.33;2.50;;;;;;;5.70;61.99;100715.04;1705493;84;21051;-53
2022/04/17 02:31:27;;;;;;;7.03;3.08;;;;;;;5.74;62.03;100717.84;1741337;81;21169;-53
2022/04/17 02:33:53;;;;;;;5.85;2.72;;;;;;;5.75;62.04;100718.23;1703461;83;21151;-53
2022/04/17 02:36:20;;;;;;;6.83;2.42;;;;;;;5.76;62.05;100711.23;1698751;82;21602;-53
2022/04/17 02:38:47;;;;;;;6.22;2.47;;;;;;;5.77;62.04;100714.23;1722817;81;21031;-53
2022/04/17 02:41:14;;;;;;;6.12;2.98;;;;;;;5.74;62.09;100711.31;1732522;81;21054;-53
2022/04/17 02:43:41;;;;;;;7.08;3.37;;;;;;;5.71;62.35;100702.81;1724077;81;21044;-53
2022/04/17 02:46:08;;;;;;;5.47;2.62;;;;;;;5.66;62.73;100693.92;1737214;81;21111;-53
2022/04/17 02:48:35;;;;;;;6.03;2.90;;;;;;;5.66;62.74;100697.84;1741585;80;21004;-53
2022/04/17 02:51:02;;;;;;;6.17;2.33;;;;;;;5.64;62.67;100700.16;1741014;80;21530;-53
2022/04/17 02:53:31;;;;;;;5.92;2.27;;;;;;;5.57;62.61;100698.35;1705492;82;21524;-53
2022/04/17 02:55:58;;;;;;;5.83;1.90;;;;;;;5.49;62.70;100697.45;1730175;80;21070;-53
2022/04/17 02:58:25;;;;;;;4.58;1.40;;;;;;;5.39;63.30;100695.78;1721275;83;21263;-53
2022/04/17 03:06:24;;;;;;;6.45;2.10;;;;;;;5.05;64.87;100702.42;1699176;82;21137;-54
2022/04/17 03:08:52;;;;;;;7.47;1.87;;;;;;;4.84;66.42;100703.44;1746209;82;21123;-53
2022/04/17 03:11:20;;;;;;;6.20;2.22;;;;;;;4.77;66.45;100709.87;1746203;81;21580;-53
2022/04/17 03:13:48;;;;;;;5.87;2.15;;;;;;;4.77;66.99;100716.38;1749414;82;20978;-53
2022/04/17 03:16:15;;;;;;;6.47;2.37;;;;;;;4.80;67.08;100708.89;1746660;80;21540;-53
2022/04/17 03:18:43;;;;;;;5.47;2.15;;;;;;;4.81;67.42;100709.28;1749393;80;21064;-53
2022/04/17 03:21:10;;;;;;;9.18;2.62;;;;;;;4.83;67.43;100706.12;1707641;82;21089;-53
2022/04/17 03:23:38;;;;;;;6.45;2.20;;;;;;;4.84;67.45;100713.01;1748158;82;21053;-53
2022/04/17 03:26:04;;;;;;;7.58;2.12;;;;;;;4.88;67.72;100715.86;1707933;82;21065;-54
2022/04/17 03:28:32;;;;;;;5.03;2.08;;;;;;;4.89;67.27;100725.35;1748793;82;21087;-53
2022/04/17 03:30:59;;;;;;;5.78;2.30;;;;;;;4.80;67.37;100720.14;1745416;80;21049;-53
2022/04/17 03:33:29;;;;;;;6.60;2.30;;;;;;;4.71;67.74;100718.02;1726669;81;21109;-53
2022/04/17 03:35:57;;;;;;;4.60;1.77;;;;;;;4.59;67.83;100720.78;1747041;80;21011;-53
2022/04/17 03:38:24;;;;;;;6.83;2.60;;;;;;;4.52;68.28;100714.63;1721577;81;21011;-53
2022/04/17 03:40:51;;;;;;;4.80;2.17;;;;;;;4.51;68.73;100716.41;1739907;82;21050;-54
2022/04/17 03:43:18;;;;;;;4.33;1.95;;;;;;;4.48;69.16;100724.37;1703187;83;21085;-53
2022/04/17 03:45:49;;;;;;;6.17;2.12;;;;;;;4.44;69.59;100719.77;1747940;81;21078;-53
2022/04/17 03:48:18;;;;;;;5.12;2.15;;;;;;;4.43;69.94;100719.38;1745558;81;20987;-53
2022/04/17 03:50:45;;;;;;;4.67;2.20;;;;;;;4.48;70.13;100729.58;1746989;80;21047;-53
2022/04/17 03:53:12;;;;;;;5.58;2.10;;;;;;;4.53;70.00;100735.41;1745780;81;21047;-53
2022/04/17 03:55:40;;;;;;;6.12;2.90;;;;;;;4.58;70.12;100734.72;1746910;82;21109;-53
2022/04/17 03:58:08;;;;;;;5.75;2.33;;;;;;;4.59;70.04;100735.11;1722853;81;21015;-53
2022/04/17 04:00:35;;;;;;;5.60;2.47;;;;;;;4.58;70.10;100733.41;1725205;81;21343;-53
2022/04/17 04:03:01;;;;;;;7.45;2.45;;;;;;;4.59;70.07;100736.42;1740008;81;21574;-53
2022/04/17 04:05:28;;;;;;;4.83;2.02;;;;;;;4.64;70.04;100738.34;1702352;82;21090;-53
2022/04/17 04:07:55;;;;;;;5.00;1.92;;;;;;;4.75;69.91;100736.95;1716550;82;21141;-53
2022/04/17 04:10:22;;;;;;;4.80;2.08;;;;;;;4.83;69.81;100740.86;1725677;82;21066;-53
2022/04/17 04:12:50;;;;;;;4.60;2.00;;;;;;;4.91;69.84;100739.18;1677529;84;21085;-53
2022/04/17 04:15:17;;;;;;;5.92;2.05;;;;;;;4.95;69.60;100742.00;1684899;84;21052;-53
2022/04/17 04:17:44;;;;;;;5.45;1.80;;;;;;;4.96;69.66;100739.78;1676871;84;21055;-53
2022/04/17 04:20:12;;;;;;;5.50;2.33;;;;;;;4.99;69.61;100740.94;1683645;84;21040;-53
2022/04/17 04:22:39;;;;;;;7.85;2.40;;;;;;;5.06;69.47;100742.77;1707675;82;21110;-53
2022/04/17 04:25:09;;;;;;;5.72;2.17;;;;;;;5.09;69.20;100748.28;1720039;83;21063;-53
2022/04/17 04:30:21;;;;;;;5.25;2.15;;;;;;;5.08;69.36;100745.27;1700368;82;21036;-53
2022/04/17 04:32:56;;;;;;;4.95;1.72;;;;;;;5.07;69.47;100747.05;1693417;84;21598;-53
2022/04/17 04:35:26;;;;;;;6.55;1.98;;;;;;;5.09;69.41;100753.49;1693719;84;21047;-53
2022/04/17 04:37:52;;;;;;;5.72;1.90;;;;;;;5.11;69.38;100749.90;1683586;84;21212;-53
2022/04/17 04:40:19;;;;;;;4.50;2.02;;;;;;;5.13;69.42;100762.39;1691262;84;21057;-53
2022/04/17 04:42:46;;;;;;;5.22;1.90;;;;;;;5.13;69.13;100757.66;1686137;84;21079;-53
2022/04/17 04:47:58;;;;;;;5.08;1.20;;;;;;;5.13;69.42;100760.26;1691674;82;21165;-53
2022/04/17 04:50:25;;;;;;;2.45;1.00;;;;;;;5.14;69.04;100768.45;1693461;84;22093;-52
2022/04/17 04:52:53;;;;;;;3.72;1.12;;;;;;;5.09;69.35;100762.63;1707105;82;21022;-53
2022/04/17 04:55:20;;;;;;;3.55;1.20;;;;;;;4.99;68.92;100754.42;1691428;83;22170;-53
2022/04/17 04:57:46;;;;;;;2.58;0.72;;;;;;;4.98;69.28;100765.79;1697750;84;21078;-53
2022/04/17 05:00:14;;;;;;;2.67;0.95;;;;;;;4.97;69.13;100768.84;1700464;84;21572;-53
2022/04/17 05:02:41;;;;;;;2.92;0.78;;;;;;;5.00;69.15;100775.20;1708871;83;21267;-53
2022/04/17 05:05:09;;;;;;;3.00;0.90;;;;;;;5.00;69.51;100767.38;1748716;80;21009;-53
2022/04/17 05:07:37;;;;;;;3.30;1.00;;;;;;;5.00;69.43;100766.55;1705932;82;21054;-53
2022/04/17 05:10:07;;;;;;;2.22;0.80;;;;;;;5.02;69.52;100765.53;1698225;82;21134;-54
2022/04/17 05:12:37;;;;;;;2.00;0.72;;;;;;;5.11;69.27;100767.30;1704316;83;21410;-53
2022/04/17 05:15:06;;;;;;;1.98;0.60;;;;;;;5.17;69.22;100773.05;1694133;83;21055;-53
2022/04/17 05:17:34;;;;;;;2.87;1.07;;;;;;;5.21;69.33;100769.81;1679064;83;21020;-53
2022/04/17 05:20:02;;;;;;;2.90;1.02;;;;;;;5.25;69.36;100765.30;1631903;83;21011;-53
2022/04/17 05:22:31;;;;;;;2.83;0.90;;;;;;;5.29;69.23;100766.34;1684221;84;22227;-53
2022/04/17 05:24:58;;;;;;;2.62;0.88;;;;;;;5.38;69.14;100767.66;1686608;83;21059;-53
2022/04/17 05:27:26;;;;;;;3.12;1.20;;;;;;;5.41;68.76;100767.48;1694671;83;21156;-53
2022/04/17 05:29:52;;;;;;;3.62;1.05;;;;;;;5.38;68.57;100764.58;1704862;82;21028;-52
2022/04/17 05:32:20;;;;;;;3.42;1.20;;;;;;;5.37;68.64;100766.80;1695648;83;21102;-52
2022/04/17 05:34:48;;;;;;;2.90;1.00;;;;;;;5.37;68.63;100770.70;1685883;82;21051;-53
2022/04/17 05:37:15;;;;;;;3.47;1.17;;;;;;;5.36;68.13;100780.79;1695875;83;21094;-53
2022/04/17 05:39:44;;;;;;;3.35;1.20;;;;;;;5.24;67.96;100784.48;1690088;84;21134;-52
2022/04/17 05:42:10;;;;;;;1.77;0.42;;;;;;;5.18;68.53;100778.66;1676732;83;21055;-53
2022/04/17 05:44:37;;;;;;;1.02;0.30;;;;;;;5.16;67.84;100775.73;1703709;82;21117;-53
2022/04/17 05:47:04;;;;;;;2.02;0.47;;;;;;;5.17;67.05;100774.81;1702361;83;21075;-54
2022/04/17 05:49:31;;;;;;;1.65;0.40;;;;;;;5.16;67.23;100779.64;1704171;83;21071;-54
2022/04/17 05:51:57;;;;;;;2.30;0.80;;;;;;;5.18;67.52;100778.66;1703982;83;21138;-53
2022/04/17 05:54:25;;;;;;;1.82;0.50;;;;;;;5.23;68.11;100775.81;1701266;83;21390;-53
2022/04/17 05:56:52;;;;;;;2.15;0.60;;;;;;;5.34;68.35;100771.34;1702237;83;21575;-53
2022/04/17 05:59:19;;;;;;;2.17;0.80;;;;;;;5.52;68.17;100769.54;1699850;83;21585;-53
2022/04/17 06:01:47;;;;;;;2.83;1.00;;;;;;;5.64;67.44;100772.80;1698877;83;21269;-53
2022/04/17 06:04:15;;;;;;;3.02;1.07;;;;;;;5.70;67.77;100769.87;1692084;84;21111;-53
2022/04/17 06:06:44;;;;;;;3.45;1.10;;;;;;;5.72;67.38;100762.78;1698135;83;20966;-53
2022/04/17 06:09:11;;;;;;;2.65;1.00;;;;;;;5.74;68.00;100767.93;1697874;82;21063;-53
2022/04/17 06:11:37;;;;;;;2.87;1.02;;;;;;;5.76;67.21;100766.08;1713033;83;21384;-54
2022/04/17 06:14:06;;;;;;;3.65;1.17;;;;;;;5.78;66.76;100760.30;1744870;80;21078;-53
2022/04/17 06:16:34;;;;;;;3.37;1.15;;;;;;;5.72;66.77;100765.40;1707460;82;21031;-53
2022/04/17 06:19:00;;;;;;;3.20;1.10;;;;;;;5.70;67.66;100771.17;1734247;81;21044;-53
2022/04/17 06:21:28;;;;;;;4.28;1.30;;;;;;;5.74;68.18;100767.93;1709784;82;21077;-53
2022/04/17 06:23:55;;;;;;;2.98;0.90;;;;;;;5.76;67.20;100769.52;1705229;82;21042;-53
2022/04/17 06:26:23;;;;;;;2.67;1.00;;;;;;;5.77;66.87;100776.44;1696761;83;21130;-53
2022/04/17 06:28:51;;;;;;;2.45;0.90;;;;;;;5.73;67.43;100773.63;1702873;83;21157;-53
2022/04/17 06:31:17;;;;;;;2.10;0.78;;;;;;;5.74;67.80;100776.59;1711539;82;21002;-53
2022/04/17 06:33:45;;;;;;;3.60;0.80;;;;;;;5.73;66.96;100779.29;1736309;81;21043;-53
2022/04/17 06:36:12;;;;;;;3.10;1.07;;;;;;;5.72;66.71;100782.37;1747064;80;21572;-53
2022/04/17 06:38:39;;;;;;;3.12;0.98;;;;;;;5.63;66.79;100778.09;1740971;81;21540;-53
2022/04/17 06:41:05;;;;;;;2.55;0.82;;;;;;;5.47;67.31;100782.83;1733492;80;21961;-54
2022/04/17 06:43:32;;;;;;;3.00;1.00;;;;;;;5.37;67.46;100795.50;1745393;81;21062;-53
2022/04/17 06:46:00;;;;;;;2.37;0.88;;;;;;;5.28;67.12;100793.82;1745422;81;21031;-53
2022/04/17 06:48:26;;;;;;;2.80;1.00;;;;;;;5.24;67.50;100801.44;1689150;82;21064;-53
2022/04/17 06:50:55;;;;;;;2.58;0.82;;;;;;;5.18;67.72;100803.91;1686467;83;21657;-53
2022/04/17 06:53:22;;;;;;;2.42;0.70;;;;;;;5.14;68.16;100798.45;1732384;81;21104;-53
2022/04/17 06:55:49;;;;;;;3.02;0.88;;;;;;;5.11;68.16;100799.91;1699679;82;21007;-52
2022/04/17 06:58:19;;;;;;;3.20;0.93;;;;;;;5.15;68.18;100804.06;1734973;81;21035;-53
2022/04/17 07:00:46;;;;;;;3.20;1.20;;;;;;;5.16;68.31;100805.29;1749215;82;21083;-53
2022/04/17 07:03:14;;;;;;;2.67;0.95;;;;;;;5.14;68.50;100800.59;1739604;81;21080;-53
2022/04/17 07:05:43;;;;;;;3.33;1.07;;;;;;;5.17;68.48;100804.82;1750686;81;21072;-53
2022/04/17 07:08:09;;;;;;;3.87;1.30;;;;;;;5.25;68.42;100805.27;1749762;80;21542;-53
2022/04/17 07:10:39;;;;;;;2.37;0.70;;;;;;;5.33;68.39;100807.03;1752997;80;21453;-53
2022/04/17 07:13:08;;;;;;;2.92;1.00;;;;;;;5.35;67.55;100810.41;1747914;81;21114;-53
2022/04/17 07:15:36;;;;;;;3.17;1.20;;;;;;;5.28;67.42;100805.12;1751240;80;21532;-53
2022/04/17 07:18:05;;;;;;;2.40;1.00;;;;;;;5.24;67.92;100808.80;1752951;81;21338;-53
2022/04/17 07:20:32;;;;;;;4.10;1.30;;;;;;;5.26;68.53;100806.11;1754010;81;21063;-53
2022/04/17 07:23:00;;;;;;;4.22;1.10;;;;;;;5.32;68.09;100801.42;1744069;81;21023;-53
2022/04/17 07:25:28;;;;;;;2.90;0.90;;;;;;;5.33;67.95;100795.30;1740467;81;21046;-53
2022/04/17 07:27:55;;;;;;;3.00;0.90;;;;;;;5.33;67.53;100788.77;1708201;82;21050;-54
2022/04/17 07:30:24;;;;;;;2.20;0.75;;;;;;;5.37;67.82;100803.80;1711664;82;21831;-53
2022/04/17 07:32:52;;;;;;;3.83;1.07;;;;;;;5.46;68.11;100798.56;1688871;83;21008;-53
2022/04/17 07:35:21;;;;;;;3.90;1.27;;;;;;;5.58;67.29;100799.22;1706442;82;21623;-52
2022/04/17 07:37:58;;;;;;;3.00;0.85;;;;;;;5.71;67.55;100792.42;1706446;82;21093;-52
2022/04/17 07:40:34;;;;;;;3.40;1.32;;;;;;;5.85;67.85;100802.59;1718324;82;21085;-51
2022/04/17 07:43:05;;;;;;;3.65;1.52;;;;;;;5.92;66.83;100796.14;1712235;82;21186;-52
2022/04/17 07:45:32;;;;;;;2.67;0.98;;;;;;;6.02;66.98;100790.83;1712419;82;21093;-52
2022/04/17 07:47:59;;;;;;;3.40;1.07;;;;;;;6.07;66.13;100791.41;1714289;82;21046;-52
2022/04/17 07:50:28;;;;;;;3.85;1.40;;;;;;;6.06;65.78;100794.11;1713172;83;21027;-52
2022/04/17 07:52:54;;;;;;;3.52;1.20;;;;;;;5.90;65.98;100790.13;1713303;82;21109;-53
2022/04/17 07:55:22;;;;;;;4.10;1.52;;;;;;;5.72;65.80;100795.90;1716118;83;21111;-52
2022/04/17 08:00:57;;;;;;;4.45;1.77;;;;;;;5.46;66.57;100796.78;1709379;82;21046;-54
2022/04/17 08:03:21;;;;;;;3.85;1.40;;;;;;;5.33;67.11;100801.81;1700282;82;21122;-52
2022/04/17 08:05:49;;;;;;;4.03;1.50;;;;;;;5.36;68.14;100799.05;1698964;82;21111;-52
2022/04/17 08:08:16;;;;;;;3.90;1.65;;;;;;;5.49;68.69;100783.58;1704484;83;21161;-54
2022/04/17 08:10:43;;;;;;;4.12;1.62;;;;;;;5.59;68.03;100791.78;1740300;81;21039;-51
2022/04/17 08:13:11;;;;;;;3.98;1.55;;;;;;;5.66;67.73;100795.74;1737421;81;21079;-52
2022/04/17 08:15:38;;;;;;;2.90;0.90;;;;;;;5.68;67.67;100786.09;1738736;81;21048;-53
2022/04/17 08:18:06;;;;;;;2.27;0.70;;;;;;;5.72;66.48;100793.29;1728990;81;21088;-52
2022/04/17 08:20:33;;;;;;;2.02;0.53;;;;;;;5.80;66.56;100787.20;1734109;80;21118;-52
2022/04/17 08:23:00;;;;;;;1.30;0.40;;;;;;;5.86;66.03;100786.02;1738432;81;21079;-52
2022/04/17 08:25:27;;;;;;;2.58;0.82;;;;;;;5.92;65.56;100789.14;1737371;80;21046;-52
2022/04/17 08:27:59;;;;;;;2.25;0.50;;;;;;;6.04;66.14;100796.80;1734192;80;21000;-52
2022/04/17 08:30:26;;;;;;;1.82;0.60;;;;;;;6.23;66.04;100799.23;1741116;81;21043;-52
2022/04/17 08:32:52;;;;;;;1.62;0.60;;;;;;;6.32;65.01;100794.83;1730375;80;21142;-53
2022/04/17 08:35:20;;;;;;;2.70;0.70;;;;;;;6.34;65.16;100790.82;1738633;81;21053;-52
2022/04/17 08:37:47;;;;;;;1.98;0.50;;;;;;;6.31;64.23;100786.59;1744795;80;22284;-52
2022/04/17 08:40:15;;;;;;;1.92;0.60;;;;;;;6.33;65.20;100786.03;1740085;81;22387;-53
2022/04/17 08:42:42;;;;;;;1.95;0.70;;;;;;;6.39;64.60;100777.47;1738332;80;21118;-52
2022/04/17 08:45:10;;;;;;;2.40;0.72;;;;;;;6.38;63.94;100754.42;1696177;83;21159;-51
2022/04/17 08:47:41;;;;;;;2.22;0.80;;;;;;;6.33;63.73;100776.05;1705808;83;21044;-52
2022/04/17 08:50:09;;;;;;;1.65;0.53;;;;;;;6.20;63.99;100775.89;1687381;84;21071;-52
2022/04/17 08:52:37;;;;;;;4.08;1.02;;;;;;;6.22;64.75;100787.56;1698573;83;21098;-52
2022/04/17 08:55:05;;;;;;;2.20;0.60;;;;;;;6.29;65.25;100785.84;1697138;84;22249;-52
2022/04/17 08:57:31;;;;;;;2.10;0.60;;;;;;;6.29;65.48;100774.08;1700855;83;21123;-52
2022/04/17 08:59:58;;;;;;;2.05;0.65;;;;;;;6.22;63.51;100782.34;1692979;84;21150;-53
2022/04/17 09:02:25;;;;;;;1.37;0.40;;;;;;;6.12;63.24;100780.25;1702361;83;21103;-52
2022/04/17 09:04:51;;;;;;;1.92;0.65;;;;;;;6.08;63.17;100784.41;1689703;83;21476;-52
2022/04/17 09:07:19;;;;;;;1.70;0.55;;;;;;;6.00;62.65;100791.38;1690897;84;21549;-53
2022/04/17 09:09:54;;;;;;;2.40;0.65;;;;;;;6.03;63.20;100788.58;1694636;83;21145;-53
2022/04/17 09:12:23;;;;;;;2.12;0.70;;;;;;;6.12;63.54;100782.86;1699651;83;21043;-53
2022/04/17 09:14:53;;;;;;;3.08;1.15;;;;;;;6.27;63.15;100771.16;1699267;83;21079;-52
2022/04/17 09:17:19;;;;;;;2.77;1.02;;;;;;;6.48;63.35;100783.03;1689762;83;21136;-53
2022/04/17 09:19:48;;;;;;;2.58;0.85;;;;;;;6.62;62.43;100782.27;1667624;84;21065;-52
2022/04/17 09:22:15;;;;;;;2.35;0.90;;;;;;;6.68;60.77;100781.90;1655801;84;21222;-52
2022/04/17 09:24:44;;;;;;;2.12;0.68;;;;;;;6.69;60.71;100778.81;1699812;83;21087;-54
2022/04/17 09:27:11;;;;;;;2.75;0.90;;;;;;;6.75;60.32;100768.00;1680523;83;21095;-53
2022/04/17 09:29:38;;;;;;;2.85;1.00;;;;;;;6.86;61.00;100773.46;1694349;82;21078;-53
2022/04/17 09:32:10;;;;;;;3.33;0.95;;;;;;;7.01;60.83;100761.27;1712654;83;21085;-51
2022/04/17 09:34:45;;;;;;;1.82;0.60;;;;;;;7.00;59.05;100767.41;1738042;80;21416;-51
2022/04/17 09:37:18;;;;;;;2.05;0.70;;;;;;;6.98;59.44;100764.05;1739128;81;21012;-52
2022/04/17 09:39:46;;;;;;;1.70;0.50;;;;;;;6.90;60.13;100775.91;1742604;81;21034;-52
2022/04/17 09:42:19;;;;;;;1.42;0.45;;;;;;;6.80;60.53;100786.89;1702854;83;22186;-52
2022/04/17 09:44:47;;;;;;;2.80;0.85;;;;;;;6.78;61.91;100778.30;1678454;83;21054;-52
2022/04/17 09:47:23;;;;;;;1.70;0.50;;;;;;;6.83;62.49;100778.87;1708968;83;21548;-53
2022/04/17 09:49:58;;;;;;;1.72;0.53;;;;;;;6.91;60.44;100772.34;1746808;81;21135;-53
2022/04/17 09:52:28;;;;;;;1.57;0.50;;;;;;;7.03;61.24;100775.09;1743991;82;21487;-52
2022/04/17 09:54:55;;;;;;;2.75;1.00;;;;;;;7.17;60.87;100774.27;1742928;80;21098;-52
2022/04/17 09:57:30;;;;;;;2.92;0.90;;;;;;;7.28;58.97;100757.07;1747446;80;22310;-52
2022/04/17 10:00:15;;;;;;;2.90;0.75;;;;;;;7.28;58.82;100773.64;1734122;81;21047;-53
2022/04/17 10:02:44;;;;;;;2.95;0.95;;;;;;;7.24;58.31;100772.13;1708942;83;21034;-53
2022/04/17 10:05:16;;;;;;;2.55;0.80;;;;;;;7.16;57.74;100772.59;1733101;81;21529;-54
2022/04/17 10:07:46;;;;;;;2.62;0.80;;;;;;;7.13;57.49;100779.31;1699328;83;21829;-51
2022/04/17 10:10:14;;;;;;;5.35;0.93;;;;;;;7.01;57.25;100761.27;1738114;81;21115;-52
2022/04/17 10:12:43;;;;;;;1.92;0.70;;;;;;;6.95;58.30;100769.94;1736420;80;21107;-54
2022/04/17 10:15:12;;;;;;;6.08;2.40;;;;;;;6.98;57.97;100771.07;1727077;81;21616;-53
2022/04/17 10:17:41;;;;;;;4.08;1.27;;;;;;;7.05;57.96;100766.67;1738381;81;21023;-52
2022/04/17 10:20:11;;;;;;;2.55;0.95;;;;;;;7.13;59.08;100770.16;1728448;81;21020;-52
2022/04/17 10:22:40;;;;;;;2.40;0.82;;;;;;;7.20;57.78;100767.55;1743535;80;21013;-53
2022/04/17 10:25:11;;;;;;;2.62;0.90;;;;;;;7.28;57.25;100761.86;1715972;81;20995;-52
2022/04/17 10:27:50;;;;;;;3.87;1.10;;;;;;;7.36;57.25;100757.45;1689351;83;21098;-53
2022/04/17 10:30:20;;;;;;;2.83;0.88;;;;;;;7.42;57.00;100749.23;1737237;81;21040;-52
2022/04/17 10:33:17;;;;;;;2.42;0.70;;;;;;;7.40;55.57;100744.56;1693352;82;21124;-53
2022/04/17 10:36:08;;;;;;;2.67;0.90;;;;;;;7.36;55.79;100750.46;1739972;82;21091;-52
2022/04/17 10:38:46;;;;;;;3.00;0.70;;;;;;;7.41;54.88;100757.56;1694013;82;21816;-52
2022/04/17 10:41:15;;;;;;;2.05;0.60;;;;;;;7.27;51.58;100763.26;1689937;83;21078;-51
2022/04/17 10:43:53;;;;;;;3.10;1.40;;;;;;;7.16;53.09;100758.20;1712580;81;21055;-51
2022/04/17 10:46:21;;;;;;;3.85;1.55;;;;;;;7.15;55.34;100764.36;1680956;84;21042;-51
2022/04/17 10:48:52;;;;;;;2.75;1.10;;;;;;;7.10;58.55;100769.03;1693303;82;21570;-51
2022/04/17 10:51:24;;;;;;;2.37;0.90;;;;;;;7.09;59.38;100769.95;1733355;80;21181;-52
2022/04/17 10:54:05;;;;;;;3.62;1.15;;;;;;;7.18;59.11;100772.03;1729779;81;21106;-52
2022/04/17 10:56:52;;;;;;;4.62;1.00;;;;;;;7.27;58.44;100770.64;1712527;82;21090;-51
2022/04/17 10:59:32;;;;;;;2.85;0.82;;;;;;;7.30;57.71;100772.24;1687509;82;21071;-52
2022/04/17 11:02:19;;;;;;;2.27;0.70;;;;;;;7.37;57.55;100759.15;1726318;81;21047;-51
2022/04/17 11:04:55;;;;;;;2.27;0.78;;;;;;;7.47;57.27;100768.13;1705053;82;21186;-51
2022/04/17 11:07:30;;;;;;;3.05;0.90;;;;;;;7.58;56.90;100763.53;1724811;82;21055;-51
2022/04/17 11:10:22;;;;;;;3.65;1.35;;;;;;;7.66;56.73;100764.38;1690768;82;21925;-52
2022/04/17 11:12:54;;;;;;;3.22;1.20;;;;;;;7.72;56.19;100764.84;1702518;83;21520;-51
2022/04/17 11:15:28;;;;;;;3.95;1.52;;;;;;;7.78;55.92;100757.92;1732052;81;21451;-52
2022/04/17 11:17:58;;;;;;;4.10;1.30;;;;;;;7.84;56.05;100755.37;1714023;83;21835;-51
2022/04/17 11:20:24;;;;;;;3.95;1.45;;;;;;;7.91;56.09;100756.66;1743628;80;21004;-51
2022/04/17 11:22:51;;;;;;;5.70;1.60;;;;;;;8.02;56.13;100751.20;1726365;82;21042;-51
2022/04/17 11:25:18;;;;;;;5.10;1.70;;;;;;;8.12;55.61;100739.20;1738107;81;21019;-50
2022/04/17 11:27:49;;;;;;;4.40;1.62;;;;;;;8.24;54.92;100740.19;1721431;80;21097;-53
2022/04/17 11:30:24;;;;;;;3.65;1.40;;;;;;;8.26;54.13;100735.23;1725926;81;21133;-52
2022/04/17 11:32:52;;;;;;;2.15;0.90;;;;;;;8.23;53.42;100730.66;1689489;83;21441;-52
2022/04/17 11:35:24;;;;;;;3.85;0.80;;;;;;;8.23;53.58;100730.66;1743358;80;21043;-51
2022/04/17 11:37:59;;;;;;;2.58;0.90;;;;;;;8.23;50.55;100721.48;1739664;80;21098;-52
2022/04/17 11:40:31;;;;;;;2.52;0.90;;;;;;;8.04;49.87;100717.43;1703066;82;21559;-52
2022/04/17 11:43:09;;;;;;;2.80;0.80;;;;;;;7.91;50.21;100717.36;1747783;82;21707;-53
2022/04/17 11:45:36;;;;;;;2.58;0.88;;;;;;;7.79;49.02;100724.70;1688632;82;21519;-53
2022/04/17 11:48:09;;;;;;;2.33;0.72;;;;;;;7.74;49.63;100734.63;1738096;82;21018;-53
2022/04/17 11:50:36;;;;;;;2.58;0.80;;;;;;;7.68;49.59;100722.73;1737453;81;21098;-53
2022/04/17 11:53:13;;;;;;;3.62;1.00;;;;;;;7.58;48.83;100718.56;1709214;83;21106;-52
2022/04/17 11:55:44;;;;;;;2.87;1.00;;;;;;;7.60;49.41;100735.02;1738131;81;22344;-52
2022/04/17 11:58:23;;;;;;;2.20;0.65;;;;;;;7.57;49.04;100727.34;1730288;82;21010;-52